OOCL California — VRWC8 — position and weather

sailwx.info

Track history (hours):
 
Tides and Currents Weather Stations Pressure Air Temp Water Temp Dewpoint Dewpoint Depression Visibility Wind Speed Wind Dir Waves Ship Positions

OOCL California

Last reported at 2016-Jul-18 19:19 UTC. Time now 2016-Jul-23 23:07 UTC.
Position N 02°02' E 102°10'.

Length 276 m; beam 40 m; draft 14 m.

Type: Ship. MMSI: 477704000.

Date/timePositionNaut miles runAvg speedWind from/ knotsBaromVisibWave heightAir tempDewpointWater temp
2016-Jul-18 19:19N 02°02' E 102°10'1216.1
2016-Jul-18 18:33N 01°55' E 102°20'1616.2
2016-Jul-18 17:33N 01°47' E 102°35'1616.2
2016-Jul-18 16:33N 01°40' E 102°49'5714.0
2016-Jul-18 12:28N 01°12' E 103°39'8 8.6
2016-Jul-18 11:33N 01°17' E 103°46'0 0.3
2016-Jul-18 10:33N 01°17' E 103°46'0 0.0
2016-Jul-18 09:33N 01°17' E 103°46'0 0.0
2016-Jul-18 08:33N 01°17' E 103°46'0 0.0
2016-Jul-18 07:33N 01°17' E 103°46'0 0.0
2016-Jul-18 06:33N 01°17' E 103°46'0 0.0
2016-Jul-18 05:33N 01°17' E 103°46'0 0.0
2016-Jul-18 04:33N 01°17' E 103°46'0 0.0
2016-Jul-18 03:33N 01°17' E 103°46'0 0.0
2016-Jul-18 02:33N 01°17' E 103°46'0 0.0
2016-Jul-18 01:33N 01°17' E 103°46'0 0.0
2016-Jul-18 00:33N 01°17' E 103°46'0 0.0
2016-Jul-17 23:33N 01°17' E 103°46'0 0.0
2016-Jul-17 22:33N 01°17' E 103°46'0 0.0
2016-Jul-17 21:33N 01°17' E 103°46'0 0.0
2016-Jul-17 20:33N 01°17' E 103°46'0 0.0
2016-Jul-17 19:33N 01°17' E 103°46'0 0.0
2016-Jul-17 18:33N 01°17' E 103°46'0 0.0
2016-Jul-17 17:33N 01°17' E 103°46'1 0.5
2016-Jul-17 16:33N 01°17' E 103°45'5 4.6
2016-Jul-17 15:33N 01°13' E 103°48'9 8.4
2016-Jul-17 14:33N 01°14' E 103°56'9 9.0
2016-Jul-17 13:33N 01°16' E 104°05'18513.7
2016-Jul-17 00:00N 03°54' E 105°42'27915.5 040 / 201006.0 5.4 27.022.832.0
2016-Jul-16 06:00N 07°42' E 108°24'9115.2 040 / 171005.210.8 30.026.0
2016-Jul-16 00:00N 09°06' E 109°00'26915.0 020 / 261004.010.8 0.528.023.932.0
2016-Jul-15 06:00N 13°24' E 110°18'10517.4 360 / 391002.2 5.4 2.030.027.4
2016-Jul-15 00:00N 15°06' E 110°42'47315.5 360 / 331002.0 5.4 1.529.026.370.5
2016-Jul-13 17:31N 22°17' E 114°06'12 9.6
2016-Jul-13 16:15N 22°23' E 113°54'5 6.7
2016-Jul-13 15:33N 22°27' E 113°54'0 0.2
2016-Jul-13 14:33N 22°27' E 113°54'0 0.0
2016-Jul-13 13:21N 22°27' E 113°54'0 0.0
2016-Jul-13 12:33N 22°27' E 113°54'0 0.0
2016-Jul-13 11:27N 22°27' E 113°54'0 0.0
2016-Jul-13 10:21N 22°27' E 113°54'0 0.0
2016-Jul-13 09:21N 22°27' E 113°54'0 0.0
2016-Jul-13 08:33N 22°27' E 113°54'0 0.0
2016-Jul-13 07:27N 22°27' E 113°54'0 0.0
2016-Jul-13 06:24N 22°27' E 113°54'0 0.0
2016-Jul-13 05:30N 22°27' E 113°54'3 3.2
2016-Jul-13 04:32N 22°24' E 113°54'11 9.8
2016-Jul-13 03:24N 22°20' E 114°05'15213.4
2016-Jul-12 16:06N 22°48' E 116°46'10615.7
2016-Jul-12 09:21N 23°50' E 118°20'4114.7
2016-Jul-12 06:33N 24°17' E 118°54'1614.1
2016-Jul-12 05:27N 24°27' E 119°07'35913.1
2016-Jul-11 02:05N 29°39' E 122°27'814.7
2016-Jul-11 01:32N 29°44' E 122°20'1010.1
2016-Jul-11 00:32N 29°50' E 122°09'9 0.9
2016-Jul-10 14:24N 29°46' E 122°00'1 0.2
2016-Jul-10 07:33N 29°47' E 122°01'1010.5
2016-Jul-10 06:33N 29°50' E 122°13'10 9.8
2016-Jul-10 05:33N 29°44' E 122°21'1110.9
2016-Jul-10 04:33N 29°47' E 122°34'10410.4
2016-Jul-09 18:33N 31°20' E 121°41'1 0.2
2016-Jul-09 11:26N 31°20' E 121°39'0 0.0
2016-Jul-09 09:26N 31°20' E 121°39'0 0.0
2016-Jul-09 08:32N 31°20' E 121°39'0 0.0
2016-Jul-09 06:32N 31°20' E 121°39'0 0.0
2016-Jul-09 03:32N 31°20' E 121°39'0 0.0
2016-Jul-08 22:32N 31°20' E 121°39'0 0.0
2016-Jul-08 21:32N 31°20' E 121°39'  
Track history (hours):
 
Tides and Currents Weather Stations Pressure Air Temp Water Temp Dewpoint Dewpoint Depression Visibility Wind Speed Wind Dir Waves Ship Positions

OOCL California

Last reported at 2016-Jul-18 19:19 UTC. Time now 2016-Jul-23 23:07 UTC.
Position N 02°02' E 102°10'.

Length 276 m; beam 40 m; draft 14 m.

Type: Ship. MMSI: 477704000.

Date/timePositionNaut miles runAvg speedWind from/ knotsBaromVisibWave heightAir tempDewpointWater temp
2016-Jul-18 19:19N 02°02' E 102°10'1216.1
2016-Jul-18 18:33N 01°55' E 102°20'1616.2
2016-Jul-18 17:33N 01°47' E 102°35'1616.2
2016-Jul-18 16:33N 01°40' E 102°49'5714.0
2016-Jul-18 12:28N 01°12' E 103°39'8 8.6
2016-Jul-18 11:33N 01°17' E 103°46'0 0.3
2016-Jul-18 10:33N 01°17' E 103°46'0 0.0
2016-Jul-18 09:33N 01°17' E 103°46'0 0.0
2016-Jul-18 08:33N 01°17' E 103°46'0 0.0
2016-Jul-18 07:33N 01°17' E 103°46'0 0.0
2016-Jul-18 06:33N 01°17' E 103°46'0 0.0
2016-Jul-18 05:33N 01°17' E 103°46'0 0.0
2016-Jul-18 04:33N 01°17' E 103°46'0 0.0
2016-Jul-18 03:33N 01°17' E 103°46'0 0.0
2016-Jul-18 02:33N 01°17' E 103°46'0 0.0
2016-Jul-18 01:33N 01°17' E 103°46'0 0.0
2016-Jul-18 00:33N 01°17' E 103°46'0 0.0
2016-Jul-17 23:33N 01°17' E 103°46'0 0.0
2016-Jul-17 22:33N 01°17' E 103°46'0 0.0
2016-Jul-17 21:33N 01°17' E 103°46'0 0.0
2016-Jul-17 20:33N 01°17' E 103°46'0 0.0
2016-Jul-17 19:33N 01°17' E 103°46'0 0.0
2016-Jul-17 18:33N 01°17' E 103°46'0 0.0
2016-Jul-17 17:33N 01°17' E 103°46'1 0.5
2016-Jul-17 16:33N 01°17' E 103°45'5 4.6
2016-Jul-17 15:33N 01°13' E 103°48'9 8.4
2016-Jul-17 14:33N 01°14' E 103°56'9 9.0
2016-Jul-17 13:33N 01°16' E 104°05'18513.7
2016-Jul-17 00:00N 03°54' E 105°42'27915.5 040 / 201006.0 5.4 27.022.832.0
2016-Jul-16 06:00N 07°42' E 108°24'9115.2 040 / 171005.210.8 30.026.0
2016-Jul-16 00:00N 09°06' E 109°00'26915.0 020 / 261004.010.8 0.528.023.932.0
2016-Jul-15 06:00N 13°24' E 110°18'10517.4 360 / 391002.2 5.4 2.030.027.4
2016-Jul-15 00:00N 15°06' E 110°42'47315.5 360 / 331002.0 5.4 1.529.026.370.5
2016-Jul-13 17:31N 22°17' E 114°06'12 9.6
2016-Jul-13 16:15N 22°23' E 113°54'5 6.7
2016-Jul-13 15:33N 22°27' E 113°54'0 0.2
2016-Jul-13 14:33N 22°27' E 113°54'0 0.0
2016-Jul-13 13:21N 22°27' E 113°54'0 0.0
2016-Jul-13 12:33N 22°27' E 113°54'0 0.0
2016-Jul-13 11:27N 22°27' E 113°54'0 0.0
2016-Jul-13 10:21N 22°27' E 113°54'0 0.0
2016-Jul-13 09:21N 22°27' E 113°54'0 0.0
2016-Jul-13 08:33N 22°27' E 113°54'0 0.0
2016-Jul-13 07:27N 22°27' E 113°54'0 0.0
2016-Jul-13 06:24N 22°27' E 113°54'0 0.0
2016-Jul-13 05:30N 22°27' E 113°54'3 3.2
2016-Jul-13 04:32N 22°24' E 113°54'11 9.8
2016-Jul-13 03:24N 22°20' E 114°05'15213.4
2016-Jul-12 16:06N 22°48' E 116°46'10615.7
2016-Jul-12 09:21N 23°50' E 118°20'4114.7
2016-Jul-12 06:33N 24°17' E 118°54'1614.1
2016-Jul-12 05:27N 24°27' E 119°07'35913.1
2016-Jul-11 02:05N 29°39' E 122°27'814.7
2016-Jul-11 01:32N 29°44' E 122°20'1010.1
2016-Jul-11 00:32N 29°50' E 122°09'9 0.9
2016-Jul-10 14:24N 29°46' E 122°00'1 0.2
2016-Jul-10 07:33N 29°47' E 122°01'1010.5
2016-Jul-10 06:33N 29°50' E 122°13'10 9.8
2016-Jul-10 05:33N 29°44' E 122°21'1110.9
2016-Jul-10 04:33N 29°47' E 122°34'10410.4
2016-Jul-09 18:33N 31°20' E 121°41'1 0.2
2016-Jul-09 11:26N 31°20' E 121°39'0 0.0
2016-Jul-09 09:26N 31°20' E 121°39'0 0.0
2016-Jul-09 08:32N 31°20' E 121°39'0 0.0
2016-Jul-09 06:32N 31°20' E 121°39'0 0.0
2016-Jul-09 03:32N 31°20' E 121°39'0 0.0
2016-Jul-08 22:32N 31°20' E 121°39'0 0.0
2016-Jul-08 21:32N 31°20' E 121°39'  

Dump ship's entire track history